Arrowhead Farms, California
Current Conditions -  °F | °C
As of 9:50 AM on Monday 20 Oct 2014 (Local Time) from KSBD Reporting Station
Haze Haze  
Wind Chill: 64°   Ceiling: Unl
Heat Index: 64°   Visibility: 3mi
Dew Point: 55°   Wind: 3mph
Humidity: 73%   Direction: 290°WNW
Pressure: 29.97"   Gusts: NA
Location:  34.2759°N, 117.303°W
Report Text: KSBD 201650Z 29003KT 3SM HZ FEW100 18/13 A2997
Loading
Personal Weather Stations






























Interactive Weather Map
Tropical Storm Tracking
New forecast layout! Learn more

10-Day Weather Forecast

Advertisements
Track Severe Weather on mobile